KFRI/FRI METAR and TAF weather

Enter ICAO airport designator
Station Type Date Time Source
KFRI METAR 2019/05/26 22:56 UTC NOAA

KFRI 262256Z AUTO 17009KT 10SM SCT034 25/19 A2995 RMK AO2 SLP134 T02540188 $


Station Type Date Time Source
KFRI Decoded METAR 2019/05/26 22:56 UTC NOAA

Fort Riley, Marshall AAF Ft Riley, KS, United States (KFRI) 39-03-20N 096-45-51W
May 26, 2019 - 06:56 PM EDT / 2019.05.26 2256 UTC
Wind: from the S (170 degrees) at 10 MPH (9 KT):0
Visibility: 10 mile(s):0
Sky conditions: partly cloudy
Temperature: 77.7 F (25.4 C)
Dew Point: 65.8 F (18.8 C)
Relative Humidity: 66%
Pressure (altimeter): 29.95 in. Hg (1014 hPa)
ob: KFRI 262256Z AUTO 17009KT 10SM SCT034 25/19 A2995 RMK AO2 SLP134 T02540188
cycle: 23

Station Type Date Time Source
KFRI TAF 2019/05/24 21:57 UTC NOAA

TAF TAF KFRI 242100Z 2421/2603 20012KT 9999 BKN025 QNH2982INS
TEMPO 2500/2505 VRB10G20KT 9000 -SHRA VCTS OVC025CB
BECMG 2504/2505 20009KT 9999 VCSH OVC018 QNH2982INS
TEMPO 2509/2514 VRB10G20KT 9000 -SHRA VCTS OVC008CB
BECMG 2516/2517 22006KT 9999 NSW BKN035 QNH2986INS
BECMG 2523/2524 16006KT 9999 OVC018 QNH2986INS TX28/2521Z TN17/2512Z LAST NO
AMDS AFT 2421 NEXT 2813

Example: see airport list